sensor_id;sensor_type;location;lat;lon;timestamp;P1;durP1;ratioP1;P2;durP2;ratioP2
41629;SDS011;27322;49.488;8.480;2023-04-21T00:00:56;16.88;;;11.40;;
41629;SDS011;27322;49.488;8.480;2023-04-21T00:03:23;15.82;;;10.30;;
41629;SDS011;27322;49.488;8.480;2023-04-21T00:05:49;16.23;;;10.82;;
41629;SDS011;27322;49.488;8.480;2023-04-21T00:08:16;16.33;;;11.02;;
41629;SDS011;27322;49.488;8.480;2023-04-21T00:10:42;15.35;;;10.60;;
41629;SDS011;27322;49.488;8.480;2023-04-21T00:13:08;17.77;;;12.30;;
41629;SDS011;27322;49.488;8.480;2023-04-21T00:15:34;16.80;;;12.07;;
41629;SDS011;27322;49.488;8.480;2023-04-21T00:18:00;14.10;;;10.38;;
41629;SDS011;27322;49.488;8.480;2023-04-21T00:20:25;11.10;;;7.25;;
41629;SDS011;27322;49.488;8.480;2023-04-21T00:22:52;12.55;;;8.38;;
41629;SDS011;27322;49.488;8.480;2023-04-21T00:25:18;15.20;;;10.48;;
41629;SDS011;27322;49.488;8.480;2023-04-21T00:27:43;14.35;;;10.25;;
41629;SDS011;27322;49.488;8.480;2023-04-21T00:30:09;16.08;;;10.57;;
41629;SDS011;27322;49.488;8.480;2023-04-21T00:32:35;15.90;;;10.82;;
41629;SDS011;27322;49.488;8.480;2023-04-21T00:35:01;16.60;;;11.57;;
41629;SDS011;27322;49.488;8.480;2023-04-21T00:37:27;18.52;;;11.27;;
41629;SDS011;27322;49.488;8.480;2023-04-21T00:39:53;16.38;;;10.95;;
41629;SDS011;27322;49.488;8.480;2023-04-21T00:42:18;15.75;;;9.98;;
41629;SDS011;27322;49.488;8.480;2023-04-21T00:44:44;16.65;;;9.93;;
41629;SDS011;27322;49.488;8.480;2023-04-21T00:47:10;14.13;;;10.25;;
41629;SDS011;27322;49.488;8.480;2023-04-21T00:49:36;16.50;;;10.57;;
41629;SDS011;27322;49.488;8.480;2023-04-21T00:52:03;15.98;;;10.98;;
41629;SDS011;27322;49.488;8.480;2023-04-21T00:54:31;18.05;;;11.38;;
41629;SDS011;27322;49.488;8.480;2023-04-21T00:56:59;16.77;;;11.18;;
41629;SDS011;27322;49.488;8.480;2023-04-21T00:59:25;14.43;;;10.02;;
41629;SDS011;27322;49.488;8.480;2023-04-21T01:01:51;13.07;;;8.57;;
41629;SDS011;27322;49.488;8.480;2023-04-21T01:04:17;15.00;;;10.55;;
41629;SDS011;27322;49.488;8.480;2023-04-21T01:06:43;15.13;;;10.20;;
41629;SDS011;27322;49.488;8.480;2023-04-21T01:09:08;16.10;;;10.32;;
41629;SDS011;27322;49.488;8.480;2023-04-21T01:11:36;14.32;;;10.23;;
41629;SDS011;27322;49.488;8.480;2023-04-21T01:14:02;14.25;;;10.27;;
41629;SDS011;27322;49.488;8.480;2023-04-21T01:16:29;16.35;;;11.35;;
41629;SDS011;27322;49.488;8.480;2023-04-21T01:18:57;16.13;;;11.30;;
41629;SDS011;27322;49.488;8.480;2023-04-21T01:21:24;17.35;;;11.23;;
41629;SDS011;27322;49.488;8.480;2023-04-21T01:23:55;17.00;;;11.60;;
41629;SDS011;27322;49.488;8.480;2023-04-21T01:26:21;15.93;;;10.93;;
41629;SDS011;27322;49.488;8.480;2023-04-21T01:28:47;15.98;;;11.32;;
41629;SDS011;27322;49.488;8.480;2023-04-21T01:31:14;13.35;;;9.05;;
41629;SDS011;27322;49.488;8.480;2023-04-21T01:33:40;15.77;;;10.00;;
41629;SDS011;27322;49.488;8.480;2023-04-21T01:36:07;14.45;;;10.15;;
41629;SDS011;27322;49.488;8.480;2023-04-21T01:38:33;16.23;;;10.93;;
41629;SDS011;27322;49.488;8.480;2023-04-21T01:41:02;17.20;;;11.07;;
41629;SDS011;27322;49.488;8.480;2023-04-21T01:43:28;15.68;;;10.27;;
41629;SDS011;27322;49.488;8.480;2023-04-21T01:45:54;15.23;;;10.80;;
41629;SDS011;27322;49.488;8.480;2023-04-21T01:48:19;16.50;;;10.90;;
41629;SDS011;27322;49.488;8.480;2023-04-21T01:50:45;16.20;;;10.90;;
41629;SDS011;27322;49.488;8.480;2023-04-21T01:53:10;14.68;;;10.60;;
41629;SDS011;27322;49.488;8.480;2023-04-21T01:55:36;15.52;;;10.48;;
41629;SDS011;27322;49.488;8.480;2023-04-21T01:58:02;17.63;;;11.13;;
41629;SDS011;27322;49.488;8.480;2023-04-21T02:00:28;15.57;;;10.73;;
41629;SDS011;27322;49.488;8.480;2023-04-21T02:02:53;13.50;;;9.73;;
41629;SDS011;27322;49.488;8.480;2023-04-21T02:05:19;14.55;;;10.32;;
41629;SDS011;27322;49.488;8.480;2023-04-21T02:07:44;16.63;;;11.65;;
41629;SDS011;27322;49.488;8.480;2023-04-21T02:10:10;16.30;;;11.35;;
41629;SDS011;27322;49.488;8.480;2023-04-21T02:12:36;15.27;;;11.18;;
41629;SDS011;27322;49.488;8.480;2023-04-21T02:15:02;14.95;;;10.75;;
41629;SDS011;27322;49.488;8.480;2023-04-21T02:17:28;15.00;;;10.68;;
41629;SDS011;27322;49.488;8.480;2023-04-21T02:19:54;14.18;;;9.90;;
41629;SDS011;27322;49.488;8.480;2023-04-21T02:22:20;16.38;;;10.90;;
41629;SDS011;27322;49.488;8.480;2023-04-21T02:24:47;16.88;;;11.98;;
41629;SDS011;27322;49.488;8.480;2023-04-21T02:27:13;18.23;;;12.02;;
41629;SDS011;27322;49.488;8.480;2023-04-21T02:29:38;18.17;;;12.40;;
41629;SDS011;27322;49.488;8.480;2023-04-21T02:32:04;19.55;;;12.48;;
41629;SDS011;27322;49.488;8.480;2023-04-21T02:34:30;17.35;;;12.02;;
41629;SDS011;27322;49.488;8.480;2023-04-21T02:36:55;17.48;;;11.02;;
41629;SDS011;27322;49.488;8.480;2023-04-21T02:39:21;16.00;;;11.18;;
41629;SDS011;27322;49.488;8.480;2023-04-21T02:41:47;17.08;;;10.90;;
41629;SDS011;27322;49.488;8.480;2023-04-21T02:44:13;18.25;;;12.55;;
41629;SDS011;27322;49.488;8.480;2023-04-21T02:46:42;19.05;;;12.43;;
41629;SDS011;27322;49.488;8.480;2023-04-21T02:49:08;17.98;;;12.05;;
41629;SDS011;27322;49.488;8.480;2023-04-21T02:51:34;16.27;;;11.40;;
41629;SDS011;27322;49.488;8.480;2023-04-21T02:53:59;16.08;;;11.65;;
41629;SDS011;27322;49.488;8.480;2023-04-21T02:56:25;16.45;;;11.48;;
41629;SDS011;27322;49.488;8.480;2023-04-21T02:58:51;16.70;;;11.70;;
41629;SDS011;27322;49.488;8.480;2023-04-21T03:01:16;17.95;;;11.60;;
41629;SDS011;27322;49.488;8.480;2023-04-21T03:03:42;17.08;;;11.95;;
41629;SDS011;27322;49.488;8.480;2023-04-21T03:06:07;16.10;;;11.48;;
41629;SDS011;27322;49.488;8.480;2023-04-21T03:08:33;17.55;;;12.38;;
41629;SDS011;27322;49.488;8.480;2023-04-21T03:10:59;18.88;;;12.30;;
41629;SDS011;27322;49.488;8.480;2023-04-21T03:13:25;17.50;;;12.27;;
41629;SDS011;27322;49.488;8.480;2023-04-21T03:15:50;18.80;;;12.88;;
41629;SDS011;27322;49.488;8.480;2023-04-21T03:18:16;20.20;;;13.82;;
41629;SDS011;27322;49.488;8.480;2023-04-21T03:20:42;19.55;;;13.27;;
41629;SDS011;27322;49.488;8.480;2023-04-21T03:23:08;21.70;;;14.38;;
41629;SDS011;27322;49.488;8.480;2023-04-21T03:25:33;23.83;;;15.27;;
41629;SDS011;27322;49.488;8.480;2023-04-21T03:27:59;22.42;;;15.20;;
41629;SDS011;27322;49.488;8.480;2023-04-21T03:30:25;25.02;;;15.38;;
41629;SDS011;27322;49.488;8.480;2023-04-21T03:32:51;22.92;;;15.18;;
41629;SDS011;27322;49.488;8.480;2023-04-21T03:35:17;21.67;;;14.60;;
41629;SDS011;27322;49.488;8.480;2023-04-21T03:37:42;21.75;;;15.05;;
41629;SDS011;27322;49.488;8.480;2023-04-21T03:40:08;21.10;;;14.70;;
41629;SDS011;27322;49.488;8.480;2023-04-21T03:42:34;22.88;;;15.40;;
41629;SDS011;27322;49.488;8.480;2023-04-21T03:45:01;23.38;;;15.90;;
41629;SDS011;27322;49.488;8.480;2023-04-21T03:47:27;21.70;;;15.45;;
41629;SDS011;27322;49.488;8.480;2023-04-21T03:49:53;20.27;;;15.25;;
41629;SDS011;27322;49.488;8.480;2023-04-21T03:52:19;20.10;;;14.68;;
41629;SDS011;27322;49.488;8.480;2023-04-21T03:54:44;21.38;;;14.20;;
41629;SDS011;27322;49.488;8.480;2023-04-21T03:57:10;22.60;;;15.75;;
41629;SDS011;27322;49.488;8.480;2023-04-21T03:59:35;20.38;;;14.95;;
41629;SDS011;27322;49.488;8.480;2023-04-21T04:02:01;20.58;;;14.95;;
41629;SDS011;27322;49.488;8.480;2023-04-21T04:04:27;19.73;;;14.27;;
41629;SDS011;27322;49.488;8.480;2023-04-21T04:06:52;21.10;;;15.15;;
41629;SDS011;27322;49.488;8.480;2023-04-21T04:09:18;21.73;;;14.75;;
41629;SDS011;27322;49.488;8.480;2023-04-21T04:11:43;21.85;;;15.35;;
41629;SDS011;27322;49.488;8.480;2023-04-21T04:14:09;20.23;;;14.57;;
41629;SDS011;27322;49.488;8.480;2023-04-21T04:16:35;23.58;;;15.70;;
41629;SDS011;27322;49.488;8.480;2023-04-21T04:19:01;24.40;;;15.32;;
41629;SDS011;27322;49.488;8.480;2023-04-21T04:21:27;22.50;;;15.43;;
41629;SDS011;27322;49.488;8.480;2023-04-21T04:23:53;25.85;;;16.52;;
41629;SDS011;27322;49.488;8.480;2023-04-21T04:26:19;22.30;;;16.05;;
41629;SDS011;27322;49.488;8.480;2023-04-21T04:28:46;23.33;;;15.32;;
41629;SDS011;27322;49.488;8.480;2023-04-21T04:31:12;24.42;;;16.45;;
41629;SDS011;27322;49.488;8.480;2023-04-21T04:33:42;32.08;;;16.85;;
41629;SDS011;27322;49.488;8.480;2023-04-21T04:36:08;25.40;;;16.85;;
41629;SDS011;27322;49.488;8.480;2023-04-21T04:38:35;24.88;;;16.35;;
41629;SDS011;27322;49.488;8.480;2023-04-21T04:41:01;23.58;;;16.35;;
41629;SDS011;27322;49.488;8.480;2023-04-21T04:43:28;23.52;;;16.08;;
41629;SDS011;27322;49.488;8.480;2023-04-21T04:45:57;26.35;;;16.85;;
41629;SDS011;27322;49.488;8.480;2023-04-21T04:48:23;28.38;;;17.65;;
41629;SDS011;27322;49.488;8.480;2023-04-21T04:50:49;32.92;;;19.45;;
41629;SDS011;27322;49.488;8.480;2023-04-21T04:53:15;30.77;;;18.70;;
41629;SDS011;27322;49.488;8.480;2023-04-21T04:55:41;33.20;;;19.55;;
41629;SDS011;27322;49.488;8.480;2023-04-21T04:58:06;37.90;;;21.15;;
41629;SDS011;27322;49.488;8.480;2023-04-21T05:00:32;33.95;;;18.77;;
41629;SDS011;27322;49.488;8.480;2023-04-21T05:02:58;34.25;;;19.85;;
41629;SDS011;27322;49.488;8.480;2023-04-21T05:05:23;33.70;;;19.00;;
41629;SDS011;27322;49.488;8.480;2023-04-21T05:07:49;33.85;;;19.70;;
41629;SDS011;27322;49.488;8.480;2023-04-21T05:10:15;35.60;;;20.52;;
41629;SDS011;27322;49.488;8.480;2023-04-21T05:12:40;39.03;;;21.38;;
41629;SDS011;27322;49.488;8.480;2023-04-21T05:15:06;36.15;;;20.05;;
41629;SDS011;27322;49.488;8.480;2023-04-21T05:17:32;35.88;;;19.80;;
41629;SDS011;27322;49.488;8.480;2023-04-21T05:19:58;37.47;;;19.88;;
41629;SDS011;27322;49.488;8.480;2023-04-21T05:22:24;34.47;;;19.67;;
41629;SDS011;27322;49.488;8.480;2023-04-21T05:24:50;38.28;;;20.75;;
41629;SDS011;27322;49.488;8.480;2023-04-21T05:27:16;35.20;;;19.48;;
41629;SDS011;27322;49.488;8.480;2023-04-21T05:29:42;34.00;;;19.17;;
41629;SDS011;27322;49.488;8.480;2023-04-21T05:32:07;34.40;;;18.15;;
41629;SDS011;27322;49.488;8.480;2023-04-21T05:34:36;35.83;;;19.38;;
41629;SDS011;27322;49.488;8.480;2023-04-21T05:37:02;36.22;;;18.85;;
41629;SDS011;27322;49.488;8.480;2023-04-21T05:39:28;32.63;;;18.58;;
41629;SDS011;27322;49.488;8.480;2023-04-21T05:41:54;30.40;;;18.10;;
41629;SDS011;27322;49.488;8.480;2023-04-21T05:44:19;28.40;;;17.50;;
41629;SDS011;27322;49.488;8.480;2023-04-21T05:46:45;28.83;;;17.35;;
41629;SDS011;27322;49.488;8.480;2023-04-21T05:49:11;34.38;;;18.80;;
41629;SDS011;27322;49.488;8.480;2023-04-21T05:51:36;35.25;;;19.15;;
41629;SDS011;27322;49.488;8.480;2023-04-21T05:54:02;37.00;;;20.75;;
41629;SDS011;27322;49.488;8.480;2023-04-21T05:56:27;40.85;;;22.17;;
41629;SDS011;27322;49.488;8.480;2023-04-21T05:58:53;44.10;;;22.75;;
41629;SDS011;27322;49.488;8.480;2023-04-21T06:01:18;46.05;;;22.05;;
41629;SDS011;27322;49.488;8.480;2023-04-21T06:03:44;48.60;;;23.02;;
41629;SDS011;27322;49.488;8.480;2023-04-21T06:06:12;45.70;;;24.30;;
41629;SDS011;27322;49.488;8.480;2023-04-21T06:08:39;50.28;;;24.27;;
41629;SDS011;27322;49.488;8.480;2023-04-21T06:11:04;44.67;;;23.83;;
41629;SDS011;27322;49.488;8.480;2023-04-21T06:13:30;47.90;;;25.10;;
41629;SDS011;27322;49.488;8.480;2023-04-21T06:15:55;50.38;;;26.27;;
41629;SDS011;27322;49.488;8.480;2023-04-21T06:18:21;51.25;;;25.55;;
41629;SDS011;27322;49.488;8.480;2023-04-21T06:20:54;51.83;;;25.10;;
41629;SDS011;27322;49.488;8.480;2023-04-21T06:23:20;51.47;;;26.02;;
41629;SDS011;27322;49.488;8.480;2023-04-21T06:25:46;45.42;;;24.17;;
41629;SDS011;27322;49.488;8.480;2023-04-21T06:28:23;45.20;;;24.02;;
41629;SDS011;27322;49.488;8.480;2023-04-21T06:30:49;48.33;;;25.08;;
41629;SDS011;27322;49.488;8.480;2023-04-21T06:33:14;52.45;;;26.17;;
41629;SDS011;27322;49.488;8.480;2023-04-21T06:35:40;51.00;;;26.25;;
41629;SDS011;27322;49.488;8.480;2023-04-21T06:38:07;49.65;;;25.85;;
41629;SDS011;27322;49.488;8.480;2023-04-21T06:40:33;48.53;;;24.95;;
41629;SDS011;27322;49.488;8.480;2023-04-21T06:42:58;50.55;;;25.63;;
41629;SDS011;27322;49.488;8.480;2023-04-21T06:45:24;46.95;;;25.50;;
41629;SDS011;27322;49.488;8.480;2023-04-21T06:47:50;46.55;;;24.08;;
41629;SDS011;27322;49.488;8.480;2023-04-21T06:50:15;42.25;;;24.92;;
41629;SDS011;27322;49.488;8.480;2023-04-21T06:52:41;45.38;;;24.40;;
41629;SDS011;27322;49.488;8.480;2023-04-21T06:55:07;47.78;;;24.73;;
41629;SDS011;27322;49.488;8.480;2023-04-21T06:57:32;46.28;;;25.42;;
41629;SDS011;27322;49.488;8.480;2023-04-21T06:59:58;47.83;;;25.42;;
41629;SDS011;27322;49.488;8.480;2023-04-21T07:02:24;41.10;;;22.55;;
41629;SDS011;27322;49.488;8.480;2023-04-21T07:04:49;42.60;;;21.83;;
41629;SDS011;27322;49.488;8.480;2023-04-21T07:07:15;36.83;;;21.33;;
41629;SDS011;27322;49.488;8.480;2023-04-21T07:09:41;40.33;;;22.00;;
41629;SDS011;27322;49.488;8.480;2023-04-21T07:12:07;40.63;;;23.17;;
41629;SDS011;27322;49.488;8.480;2023-04-21T07:14:32;40.95;;;23.42;;
41629;SDS011;27322;49.488;8.480;2023-04-21T07:16:58;43.17;;;23.10;;
41629;SDS011;27322;49.488;8.480;2023-04-21T07:19:23;44.50;;;23.70;;
41629;SDS011;27322;49.488;8.480;2023-04-21T07:21:49;43.08;;;23.85;;
41629;SDS011;27322;49.488;8.480;2023-04-21T07:24:15;45.10;;;24.02;;
41629;SDS011;27322;49.488;8.480;2023-04-21T07:26:41;43.40;;;24.60;;
41629;SDS011;27322;49.488;8.480;2023-04-21T07:29:06;41.55;;;24.92;;
41629;SDS011;27322;49.488;8.480;2023-04-21T07:31:32;44.13;;;25.58;;
41629;SDS011;27322;49.488;8.480;2023-04-21T07:33:58;45.15;;;25.50;;
41629;SDS011;27322;49.488;8.480;2023-04-21T07:36:23;39.50;;;23.65;;
41629;SDS011;27322;49.488;8.480;2023-04-21T07:38:50;39.40;;;24.25;;
41629;SDS011;27322;49.488;8.480;2023-04-21T07:41:15;44.03;;;25.98;;
41629;SDS011;27322;49.488;8.480;2023-04-21T07:43:41;41.92;;;24.67;;
41629;SDS011;27322;49.488;8.480;2023-04-21T07:46:07;47.22;;;26.00;;
41629;SDS011;27322;49.488;8.480;2023-04-21T07:48:32;46.25;;;26.00;;
41629;SDS011;27322;49.488;8.480;2023-04-21T07:50:58;47.42;;;27.77;;
41629;SDS011;27322;49.488;8.480;2023-04-21T07:53:24;47.88;;;27.58;;
41629;SDS011;27322;49.488;8.480;2023-04-21T07:55:50;49.03;;;28.92;;
41629;SDS011;27322;49.488;8.480;2023-04-21T07:58:16;47.85;;;28.42;;
41629;SDS011;27322;49.488;8.480;2023-04-21T08:00:42;47.42;;;28.10;;
41629;SDS011;27322;49.488;8.480;2023-04-21T08:03:08;47.92;;;28.08;;
41629;SDS011;27322;49.488;8.480;2023-04-21T08:05:33;49.50;;;29.90;;
41629;SDS011;27322;49.488;8.480;2023-04-21T08:07:59;50.15;;;29.38;;
41629;SDS011;27322;49.488;8.480;2023-04-21T08:10:25;45.95;;;28.05;;
41629;SDS011;27322;49.488;8.480;2023-04-21T08:12:50;43.47;;;27.98;;
41629;SDS011;27322;49.488;8.480;2023-04-21T08:15:16;47.78;;;29.42;;
41629;SDS011;27322;49.488;8.480;2023-04-21T08:17:42;48.03;;;30.02;;
41629;SDS011;27322;49.488;8.480;2023-04-21T08:20:08;52.80;;;30.60;;
41629;SDS011;27322;49.488;8.480;2023-04-21T08:22:34;48.92;;;27.48;;
41629;SDS011;27322;49.488;8.480;2023-04-21T08:25:03;46.03;;;26.10;;
41629;SDS011;27322;49.488;8.480;2023-04-21T08:27:29;44.75;;;26.13;;
41629;SDS011;27322;49.488;8.480;2023-04-21T08:29:55;44.55;;;26.67;;
41629;SDS011;27322;49.488;8.480;2023-04-21T08:32:21;47.20;;;28.38;;
41629;SDS011;27322;49.488;8.480;2023-04-21T08:34:50;51.97;;;28.20;;
41629;SDS011;27322;49.488;8.480;2023-04-21T08:37:19;52.00;;;30.35;;
41629;SDS011;27322;49.488;8.480;2023-04-21T08:39:46;49.15;;;29.15;;
41629;SDS011;27322;49.488;8.480;2023-04-21T08:42:15;50.03;;;29.20;;
41629;SDS011;27322;49.488;8.480;2023-04-21T08:44:42;49.30;;;29.65;;
41629;SDS011;27322;49.488;8.480;2023-04-21T08:47:11;48.70;;;28.23;;
41629;SDS011;27322;49.488;8.480;2023-04-21T08:49:39;46.95;;;28.85;;
41629;SDS011;27322;49.488;8.480;2023-04-21T08:52:06;47.88;;;28.42;;
41629;SDS011;27322;49.488;8.480;2023-04-21T08:54:32;44.92;;;27.83;;
41629;SDS011;27322;49.488;8.480;2023-04-21T08:57:00;46.33;;;28.70;;
41629;SDS011;27322;49.488;8.480;2023-04-21T08:59:27;41.17;;;25.85;;
41629;SDS011;27322;49.488;8.480;2023-04-21T09:02:15;39.97;;;25.27;;
41629;SDS011;27322;49.488;8.480;2023-04-21T09:04:49;38.53;;;24.02;;
41629;SDS011;27322;49.488;8.480;2023-04-21T09:07:36;39.55;;;21.80;;
41629;SDS011;27322;49.488;8.480;2023-04-21T09:10:05;30.80;;;19.67;;
41629;SDS011;27322;49.488;8.480;2023-04-21T09:12:31;27.13;;;18.30;;
41629;SDS011;27322;49.488;8.480;2023-04-21T09:14:57;28.25;;;18.85;;
41629;SDS011;27322;49.488;8.480;2023-04-21T09:17:27;26.67;;;18.42;;
41629;SDS011;27322;49.488;8.480;2023-04-21T09:22:40;25.33;;;15.60;;
41629;SDS011;27322;49.488;8.480;2023-04-21T09:25:06;22.13;;;15.35;;
41629;SDS011;27322;49.488;8.480;2023-04-21T09:27:34;21.95;;;15.10;;
41629;SDS011;27322;49.488;8.480;2023-04-21T09:30:02;21.83;;;14.48;;
41629;SDS011;27322;49.488;8.480;2023-04-21T09:32:28;20.92;;;14.52;;
41629;SDS011;27322;49.488;8.480;2023-04-21T09:34:58;22.67;;;16.00;;
41629;SDS011;27322;49.488;8.480;2023-04-21T09:37:24;22.95;;;15.40;;
41629;SDS011;27322;49.488;8.480;2023-04-21T09:39:50;22.63;;;14.90;;
41629;SDS011;27322;49.488;8.480;2023-04-21T09:42:15;19.98;;;13.40;;
41629;SDS011;27322;49.488;8.480;2023-04-21T09:44:41;21.52;;;14.88;;
41629;SDS011;27322;49.488;8.480;2023-04-21T09:47:08;22.48;;;14.35;;
41629;SDS011;27322;49.488;8.480;2023-04-21T09:49:36;19.70;;;12.50;;
41629;SDS011;27322;49.488;8.480;2023-04-21T09:52:08;23.48;;;14.93;;
41629;SDS011;27322;49.488;8.480;2023-04-21T09:54:36;21.35;;;13.80;;
41629;SDS011;27322;49.488;8.480;2023-04-21T09:57:09;17.20;;;11.82;;
41629;SDS011;27322;49.488;8.480;2023-04-21T09:59:37;18.80;;;12.13;;
41629;SDS011;27322;49.488;8.480;2023-04-21T10:02:09;16.85;;;10.30;;
41629;SDS011;27322;49.488;8.480;2023-04-21T10:04:36;16.30;;;11.10;;
41629;SDS011;27322;49.488;8.480;2023-04-21T10:07:05;16.73;;;10.82;;
41629;SDS011;27322;49.488;8.480;2023-04-21T10:09:41;18.05;;;10.95;;
41629;SDS011;27322;49.488;8.480;2023-04-21T10:12:10;17.27;;;10.35;;
41629;SDS011;27322;49.488;8.480;2023-04-21T10:14:37;17.83;;;11.23;;
41629;SDS011;27322;49.488;8.480;2023-04-21T10:17:04;16.67;;;10.82;;
41629;SDS011;27322;49.488;8.480;2023-04-21T10:19:32;15.32;;;10.30;;
41629;SDS011;27322;49.488;8.480;2023-04-21T10:22:04;16.60;;;10.73;;
41629;SDS011;27322;49.488;8.480;2023-04-21T10:24:31;16.90;;;10.88;;
41629;SDS011;27322;49.488;8.480;2023-04-21T10:27:02;15.00;;;10.02;;
41629;SDS011;27322;49.488;8.480;2023-04-21T10:29:28;20.25;;;11.02;;
41629;SDS011;27322;49.488;8.480;2023-04-21T10:31:55;16.17;;;10.65;;
41629;SDS011;27322;49.488;8.480;2023-04-21T10:41:51;16.08;;;10.93;;
41629;SDS011;27322;49.488;8.480;2023-04-21T10:44:21;16.60;;;11.48;;
41629;SDS011;27322;49.488;8.480;2023-04-21T10:46:52;18.40;;;11.50;;
41629;SDS011;27322;49.488;8.480;2023-04-21T10:49:22;16.77;;;11.35;;
41629;SDS011;27322;49.488;8.480;2023-04-21T10:54:28;15.32;;;10.40;;
41629;SDS011;27322;49.488;8.480;2023-04-21T10:56:58;15.98;;;11.10;;
41629;SDS011;27322;49.488;8.480;2023-04-21T10:59:24;13.30;;;9.57;;
41629;SDS011;27322;49.488;8.480;2023-04-21T11:01:51;13.98;;;9.32;;
41629;SDS011;27322;49.488;8.480;2023-04-21T11:04:17;15.52;;;9.75;;
41629;SDS011;27322;49.488;8.480;2023-04-21T11:07:03;13.25;;;9.02;;
41629;SDS011;27322;49.488;8.480;2023-04-21T11:09:29;14.50;;;10.05;;
41629;SDS011;27322;49.488;8.480;2023-04-21T11:11:58;13.30;;;9.13;;
41629;SDS011;27322;49.488;8.480;2023-04-21T11:14:26;11.40;;;7.80;;
41629;SDS011;27322;49.488;8.480;2023-04-21T11:16:52;10.75;;;7.75;;
41629;SDS011;27322;49.488;8.480;2023-04-21T11:19:18;11.13;;;7.25;;
41629;SDS011;27322;49.488;8.480;2023-04-21T11:21:48;10.88;;;7.15;;
41629;SDS011;27322;49.488;8.480;2023-04-21T11:24:14;9.63;;;6.80;;
41629;SDS011;27322;49.488;8.480;2023-04-21T11:26:40;11.38;;;7.63;;
41629;SDS011;27322;49.488;8.480;2023-04-21T11:29:09;9.77;;;6.53;;
41629;SDS011;27322;49.488;8.480;2023-04-21T11:31:36;10.30;;;7.07;;
41629;SDS011;27322;49.488;8.480;2023-04-21T11:34:04;9.93;;;7.32;;
41629;SDS011;27322;49.488;8.480;2023-04-21T11:36:31;9.90;;;7.07;;
41629;SDS011;27322;49.488;8.480;2023-04-21T11:38:58;10.48;;;7.55;;
41629;SDS011;27322;49.488;8.480;2023-04-21T11:41:27;9.52;;;6.60;;
41629;SDS011;27322;49.488;8.480;2023-04-21T11:43:53;9.57;;;6.40;;
41629;SDS011;27322;49.488;8.480;2023-04-21T11:46:25;10.02;;;6.70;;
41629;SDS011;27322;49.488;8.480;2023-04-21T11:49:09;9.48;;;6.05;;
41629;SDS011;27322;49.488;8.480;2023-04-21T11:51:36;8.70;;;6.15;;
41629;SDS011;27322;49.488;8.480;2023-04-21T11:54:04;10.45;;;6.15;;
41629;SDS011;27322;49.488;8.480;2023-04-21T11:56:35;10.27;;;6.13;;
41629;SDS011;27322;49.488;8.480;2023-04-21T11:59:11;10.15;;;7.35;;
41629;SDS011;27322;49.488;8.480;2023-04-21T12:01:47;10.02;;;6.03;;
41629;SDS011;27322;49.488;8.480;2023-04-21T12:04:14;10.05;;;5.72;;
41629;SDS011;27322;49.488;8.480;2023-04-21T12:06:41;8.65;;;6.00;;
41629;SDS011;27322;49.488;8.480;2023-04-21T12:09:07;9.63;;;6.70;;
41629;SDS011;27322;49.488;8.480;2023-04-21T12:11:40;8.35;;;5.25;;
41629;SDS011;27322;49.488;8.480;2023-04-21T12:14:07;9.10;;;5.93;;
41629;SDS011;27322;49.488;8.480;2023-04-21T12:16:34;8.52;;;5.80;;
41629;SDS011;27322;49.488;8.480;2023-04-21T12:19:01;9.27;;;6.35;;
41629;SDS011;27322;49.488;8.480;2023-04-21T12:21:27;8.93;;;5.95;;
41629;SDS011;27322;49.488;8.480;2023-04-21T12:23:53;9.55;;;6.13;;
41629;SDS011;27322;49.488;8.480;2023-04-21T12:26:19;8.80;;;5.82;;
41629;SDS011;27322;49.488;8.480;2023-04-21T12:28:46;9.10;;;6.40;;
41629;SDS011;27322;49.488;8.480;2023-04-21T12:31:12;9.27;;;6.32;;
41629;SDS011;27322;49.488;8.480;2023-04-21T12:33:38;9.35;;;5.90;;
41629;SDS011;27322;49.488;8.480;2023-04-21T12:36:04;9.55;;;6.63;;
41629;SDS011;27322;49.488;8.480;2023-04-21T12:38:29;10.48;;;6.82;;
41629;SDS011;27322;49.488;8.480;2023-04-21T12:40:55;9.40;;;6.60;;
41629;SDS011;27322;49.488;8.480;2023-04-21T12:43:21;10.20;;;6.40;;
41629;SDS011;27322;49.488;8.480;2023-04-21T12:45:47;9.13;;;6.18;;
41629;SDS011;27322;49.488;8.480;2023-04-21T12:48:16;11.43;;;6.93;;
41629;SDS011;27322;49.488;8.480;2023-04-21T12:50:42;10.35;;;6.55;;
41629;SDS011;27322;49.488;8.480;2023-04-21T12:53:08;9.85;;;6.75;;
41629;SDS011;27322;49.488;8.480;2023-04-21T12:55:34;10.70;;;6.18;;
41629;SDS011;27322;49.488;8.480;2023-04-21T12:58:00;7.68;;;5.35;;
41629;SDS011;27322;49.488;8.480;2023-04-21T13:00:26;10.50;;;5.88;;
41629;SDS011;27322;49.488;8.480;2023-04-21T13:02:52;10.05;;;6.00;;
41629;SDS011;27322;49.488;8.480;2023-04-21T13:05:18;11.48;;;5.93;;
41629;SDS011;27322;49.488;8.480;2023-04-21T13:07:44;9.63;;;6.65;;
41629;SDS011;27322;49.488;8.480;2023-04-21T13:10:09;10.00;;;7.07;;
41629;SDS011;27322;49.488;8.480;2023-04-21T13:12:35;9.55;;;6.60;;
41629;SDS011;27322;49.488;8.480;2023-04-21T13:15:02;9.50;;;6.53;;
41629;SDS011;27322;49.488;8.480;2023-04-21T13:17:28;9.65;;;6.53;;
41629;SDS011;27322;49.488;8.480;2023-04-21T13:19:54;8.73;;;6.07;;
41629;SDS011;27322;49.488;8.480;2023-04-21T13:22:19;9.25;;;5.80;;
41629;SDS011;27322;49.488;8.480;2023-04-21T13:24:45;9.48;;;5.97;;
41629;SDS011;27322;49.488;8.480;2023-04-21T13:27:11;9.02;;;6.32;;
41629;SDS011;27322;49.488;8.480;2023-04-21T13:29:36;9.60;;;6.43;;
41629;SDS011;27322;49.488;8.480;2023-04-21T13:32:03;12.05;;;6.65;;
41629;SDS011;27322;49.488;8.480;2023-04-21T13:34:30;9.02;;;5.85;;
41629;SDS011;27322;49.488;8.480;2023-04-21T13:36:57;11.52;;;7.28;;
41629;SDS011;27322;49.488;8.480;2023-04-21T13:39:23;11.20;;;6.70;;
41629;SDS011;27322;49.488;8.480;2023-04-21T13:41:48;8.80;;;6.25;;
41629;SDS011;27322;49.488;8.480;2023-04-21T13:44:14;9.68;;;6.32;;
41629;SDS011;27322;49.488;8.480;2023-04-21T13:46:40;11.65;;;6.78;;
41629;SDS011;27322;49.488;8.480;2023-04-21T13:49:06;10.07;;;6.60;;
41629;SDS011;27322;49.488;8.480;2023-04-21T13:51:32;10.60;;;6.18;;
41629;SDS011;27322;49.488;8.480;2023-04-21T13:53:57;11.02;;;6.93;;
41629;SDS011;27322;49.488;8.480;2023-04-21T13:56:23;10.35;;;7.22;;
41629;SDS011;27322;49.488;8.480;2023-04-21T13:58:49;10.32;;;5.97;;
41629;SDS011;27322;49.488;8.480;2023-04-21T14:01:15;9.70;;;5.90;;
41629;SDS011;27322;49.488;8.480;2023-04-21T14:03:41;9.57;;;6.53;;
41629;SDS011;27322;49.488;8.480;2023-04-21T14:06:06;10.40;;;6.70;;
41629;SDS011;27322;49.488;8.480;2023-04-21T14:08:32;9.57;;;6.50;;
41629;SDS011;27322;49.488;8.480;2023-04-21T14:10:57;8.60;;;5.85;;
41629;SDS011;27322;49.488;8.480;2023-04-21T14:13:23;9.32;;;6.32;;
41629;SDS011;27322;49.488;8.480;2023-04-21T14:15:52;8.15;;;6.40;;
41629;SDS011;27322;49.488;8.480;2023-04-21T14:18:19;8.15;;;6.05;;
41629;SDS011;27322;49.488;8.480;2023-04-21T14:20:44;9.60;;;6.57;;
41629;SDS011;27322;49.488;8.480;2023-04-21T14:23:10;9.00;;;6.55;;
41629;SDS011;27322;49.488;8.480;2023-04-21T14:25:36;9.93;;;5.85;;
41629;SDS011;27322;49.488;8.480;2023-04-21T14:28:01;8.38;;;6.03;;
41629;SDS011;27322;49.488;8.480;2023-04-21T14:30:31;8.63;;;5.85;;
41629;SDS011;27322;49.488;8.480;2023-04-21T14:32:57;9.57;;;5.97;;
41629;SDS011;27322;49.488;8.480;2023-04-21T14:35:22;10.15;;;6.00;;